• Join FlightAware (Why Join?)
  • Login
  • US Flag 
09:33PM EST


 

Airport Tracker/Info


-or-


 

Live Flight TrackerFlight Track Log ✈ UAL4295 ✈ 03-Mar-2014 ✈ KIAH - KCMH

Flight Track Log - Related Links

Times and Time Zones

All times are in EST time to prevent confusion due to time zone crossing. See the UAL4295 flight status page for this flight to view local times or setup timezone preferences in your user account.

Time Position Orientation Groundspeed Altitude Reporting Facility
EST Latitude Longitude Course Direction KTS MPH feet Rate Location/Type
02:20PM 29.9817 -95.3556 North 136 157 900  Level Houston Center
02:21PM 30.0256 -95.3528 North 189 217 2,500 1,140 Climbing Houston Center
02:22PM 30.0369 -95.3489 16° North 172 198 2,600 1,440 Climbing Houston Center
02:22PM 30.0800 -95.3269 24° Northeast 231 266 4,000 1,200 Climbing Houston Center
02:23PM 30.0953 -95.3189 25° Northeast 211 243 3,900 60 Descending Houston Center
02:23PM 30.1364 -95.3006 21° North 239 275 4,100 540 Climbing Houston Center
02:24PM 30.1689 -95.2831 25° Northeast 234 269 4,500 1,260 Climbing Houston Center
02:24PM 30.1983 -95.2689 23° Northeast 245 282 5,400 1,620 Climbing Houston Center
02:25PM 30.2336 -95.2489 26° Northeast 248 285 6,200 1,860 Climbing Houston Center
02:25PM 30.2786 -95.2278 22° Northeast 275 316 7,500 1,800 Climbing Houston Center
02:26PM 30.3064 -95.2144 23° Northeast 272 313 8,100 1,860 Climbing Houston Center
02:27PM 30.3811 -95.1764 24° Northeast 287 330 10,400 1,500 Climbing Houston Center
02:28PM 30.4608 -95.1378 23° Northeast 298 343 11,300 1,140 Climbing Houston Center
02:29PM 30.5689 -95.0828 24° Northeast 344 396 12,800 1,140 Climbing Houston Center
02:30PM 30.6586 -95.0317 26° Northeast 351 404 13,700 780 Climbing Houston Center
02:31PM 30.7542 -94.9711 29° Northeast 378 435 14,500 780 Climbing Houston Center
02:32PM 30.8528 -94.9106 28° Northeast 397 457 15,400 960 Climbing Houston Center
02:33PM 30.9522 -94.8481 28° Northeast 402 463 16,500 1,020 Climbing Houston Center
02:34PM 31.0525 -94.7858 28° Northeast 407 468 17,600 1,020 Climbing Houston Center
02:35PM 31.1683 -94.7119 29° Northeast 406 467 18,700 1,020 Climbing Houston Center
02:36PM 31.2619 -94.6478 30° Northeast 406 467 19,800 1,080 Climbing Houston Center
02:37PM 31.3589 -94.5814 30° Northeast 406 467 21,000 1,200 Climbing Houston Center
02:38PM 31.4775 -94.4989 31° Northeast 408 470 22,400 1,200 Climbing Houston Center
02:39PM 31.5761 -94.4300 31° Northeast 410 472 23,500 960 Climbing Houston Center
02:40PM 31.6775 -94.3589 31° Northeast 419 482 24,500 1,140 Climbing Houston Center
02:41PM 31.7819 -94.2656 37° Northeast 425 489 25,900 1,020 Climbing Houston Center
02:42PM 31.8647 -94.1883 38° Northeast 424 488 26,700 840 Climbing Houston Center
02:43PM 31.9400 -94.1181 38° Northeast 423 487 27,400 840 Climbing Fort Worth Center
02:44PM 32.0375 -94.0242 39° Northeast 425 489 28,200 900 Climbing Fort Worth Center
02:45PM 32.1236 -93.9389 40° Northeast 426 490 29,300 1,200 Climbing Fort Worth Center
02:46PM 32.2261 -93.8411 39° Northeast 426 490 30,700 1,140 Climbing Fort Worth Center
02:47PM 32.3158 -93.7528 40° Northeast 424 488 31,700 660 Climbing Fort Worth Center
02:48PM 32.4081 -93.6628 39° Northeast 428 493 32,100 660 Climbing Fort Worth Center
02:49PM 32.5025 -93.5717 39° Northeast 437 503 33,100 900 Climbing Fort Worth Center
02:50PM 32.5961 -93.4792 40° Northeast 437 503 34,000 780 Climbing Fort Worth Center
02:51PM 32.6889 -93.3878 40° Northeast 437 503 34,800 480 Climbing Fort Worth Center
02:52PM 32.8022 -93.2742 40° Northeast 445 512 35,000 60 Climbing Fort Worth Center
02:54PM 32.9019 -93.1769 39° Northeast 464 534 35,000  Level Fort Worth Center
02:55PM 33.0033 -93.0747 40° Northeast 476 548 35,000  Level Fort Worth Center
02:56PM 33.1075 -92.9733 39° Northeast 483 556 35,000  Level Fort Worth Center
02:58PM 33.3281 -92.7547 40° Northeast 475 547 35,000  Level Memphis Center
02:59PM 33.4286 -92.6506 41° Northeast 475 547 35,000  Level Fort Worth Center
03:00PM 33.5300 -92.5492 40° Northeast 478 550 35,000  Level Fort Worth Center
03:01PM 33.6314 -92.4467 40° Northeast 476 548 35,000  Level Fort Worth Center
03:02PM 33.7336 -92.3431 40° Northeast 477 549 35,000  Level Fort Worth Center
03:03PM 33.8561 -92.2203 40° Northeast 479 551 35,000  Level Memphis Center
03:04PM 33.9556 -92.1167 41° Northeast 478 550 35,000  Level Memphis Center
03:05PM 34.0578 -92.0136 40° Northeast 478 550 35,000  Level Memphis Center
03:06PM 34.1672 -91.9000 41° Northeast 478 550 35,000  Level Memphis Center
03:07PM 34.2669 -91.7961 41° Northeast 478 550 35,000  Level Memphis Center
03:08PM 34.3678 -91.6925 40° Northeast 478 550 35,000  Level Memphis Center
03:09PM 34.4886 -91.5664 41° Northeast 478 550 35,000  Level Memphis Center
03:10PM 34.5886 -91.4619 41° Northeast 478 550 35,000  Level Memphis Center
03:11PM 34.6889 -91.3578 40° Northeast 478 550 35,000  Level Memphis Center
03:12PM 34.7864 -91.2542 41° Northeast 475 547 35,000  Level Memphis Center
03:13PM 34.8861 -91.1494 41° Northeast 475 547 35,000  Level Memphis Center
03:14PM 35.0000 -91.0294 41° Northeast 475 547 35,000  Level Memphis Center
03:15PM 35.0983 -90.9253 41° Northeast 472 543 35,000  Level Memphis Center
03:16PM 35.2006 -90.8156 41° Northeast 471 542 35,000  Level Memphis Center
03:17PM 35.2961 -90.7167 40° Northeast 471 542 35,000  Level Memphis Center
03:18PM 35.3928 -90.6111 42° Northeast 470 541 35,000  Level Memphis Center
03:19PM 35.4914 -90.5053 41° Northeast 470 541 35,000  Level Memphis Center
03:20PM 35.5894 -90.4006 41° Northeast 469 540 35,000  Level Memphis Center
03:21PM 35.7058 -90.2722 42° Northeast 469 540 35,000  Level Memphis Center
03:22PM 35.8039 -90.1664 41° Northeast 469 540 35,000  Level Memphis Center
03:23PM 35.9003 -90.0597 42° Northeast 469 540 35,000  Level Memphis Center
03:25PM 35.9978 -89.9544 41° Northeast 468 539 35,000  Level Memphis Center
03:26PM 36.0944 -89.8489 41° Northeast 467 537 35,000  Level Memphis Center
03:27PM 36.1900 -89.7428 42° Northeast 464 534 35,000  Level Memphis Center
03:28PM 36.2861 -89.6367 42° Northeast 463 533 35,000  Level Memphis Center
03:29PM 36.3817 -89.5308 42° Northeast 460 529 35,000  Level Memphis Center
03:30PM 36.4772 -89.4244 42° Northeast 455 524 35,000  Level Memphis Center
03:31PM 36.5736 -89.3178 42° Northeast 453 521 35,000  Level Memphis Center
03:32PM 36.6675 -89.2128 42° Northeast 453 521 35,000  Level Memphis Center
03:33PM 36.7775 -89.0869 42° Northeast 450 518 35,000  Level Memphis Center
03:34PM 36.8708 -88.9822 42° Northeast 450 518 35,000  Level Memphis Center
03:35PM 36.9628 -88.8764 43° Northeast 449 517 35,000  Level Memphis Center
03:36PM 37.0561 -88.7714 42° Northeast 449 517 35,000  Level Memphis Center
03:37PM 37.1492 -88.6661 42° Northeast 450 518 35,000  Level Memphis Center
03:38PM 37.2417 -88.5594 43° Northeast 450 518 35,000  Level Memphis Center
03:39PM 37.3347 -88.4522 42° Northeast 450 518 35,000  Level Memphis Center
03:40PM 37.4444 -88.3258 42° Northeast 448 516 35,000  Level Memphis Center
03:41PM 37.5367 -88.2183 43° Northeast 449 517 35,000  Level Memphis Center
03:42PM 37.6289 -88.1111 43° Northeast 449 517 35,000  Level Memphis Center
03:43PM 37.7203 -88.0064 42° Northeast 446 513 35,000  Level Memphis Center
03:44PM 37.8108 -87.9000 43° Northeast 446 513 35,000  Level Memphis Center
03:45PM 37.9039 -87.7914 43° Northeast 447 514 35,000  Level Memphis Center
03:46PM 38.0181 -87.6217 49° Northeast 452 520 35,000 -180 Level Indianapolis Center
03:47PM 38.0992 -87.4942 51° Northeast 459 528 34,700 -480 Descending Indianapolis Center
03:48PM 38.1794 -87.3681 51° Northeast 459 528 34,100 -480 Descending Indianapolis Center
03:50PM 38.2553 -87.2378 53° Northeast 457 526 33,800 -600 Descending Indianapolis Center
03:51PM 38.3094 -87.0700 68° East 465 535 32,900 -840 Descending Indianapolis Center
03:52PM 38.3589 -86.9153 68° East 465 535 32,100 -840 Descending Indianapolis Center
03:53PM 38.4061 -86.7628 68° East 465 535 31,300 -540 Descending Indianapolis Center
03:54PM 38.4531 -86.6114 68° East 464 534 31,000 -180 Descending Indianapolis Center
03:55PM 38.4992 -86.4583 69° East 460 529 31,000  Level Indianapolis Center
03:56PM 38.5461 -86.3056 69° East 460 529 31,000  Level Indianapolis Center
03:57PM 38.5925 -86.1511 69° East 461 531 31,000  Level Indianapolis Center
03:58PM 38.6386 -85.9964 69° East 461 531 31,000  Level Indianapolis Center
03:59PM 38.6894 -85.8261 69° East 461 531 31,000  Level Indianapolis Center
04:00PM 38.7358 -85.6714 69° East 463 533 31,000  Level Indianapolis Center
04:01PM 38.7814 -85.5175 69° East 463 533 31,000  Level Indianapolis Center
04:02PM 38.8267 -85.3622 69° East 464 534 31,000 -600 Level Indianapolis Center
04:03PM 38.8800 -85.1775 70° East 464 534 29,800 -1,800 Descending Indianapolis Center
04:04PM 38.9253 -85.0225 69° East 464 534 27,400 -2,580 Descending Indianapolis Center
04:05PM 38.9728 -84.8558 70° East 467 537 24,500 -1,680 Descending Indianapolis Center
04:06PM 39.0183 -84.7036 69° East 463 533 24,000 -480 Descending Indianapolis Center
04:07PM 39.0847 -84.5803 55° Northeast 428 493 23,600 -720 Descending Indianapolis Center
04:08PM 39.1517 -84.4572 55° Northeast 422 486 22,600 -960 Descending Indianapolis Center
04:09PM 39.2206 -84.3336 54° Northeast 423 487 21,700 -900 Descending Indianapolis Center
04:10PM 39.2883 -84.2075 55° Northeast 426 490 20,800 -960 Descending Indianapolis Center
04:11PM 39.3436 -84.0692 63° Northeast 433 498 19,800 -1,200 Descending Indianapolis Center
04:12PM 39.4056 -83.9067 64° Northeast 430 495 18,400 -1,620 Descending Indianapolis Center
04:13PM 39.4569 -83.7736 63° Northeast 421 484 16,600 -2,100 Descending Indianapolis Center
04:14PM 39.5061 -83.6444 64° Northeast 413 475 14,100 -2,640 Descending Indianapolis Center
04:15PM 39.5419 -83.5536 63° Northeast 385 443 12,200 -2,460 Descending Indianapolis Center
04:15PM 39.5522 -83.5225 67° East 392 451 11,600 -1,380 Descending Indianapolis Center
04:16PM 39.5822 -83.4461 63° Northeast 354 407 11,000 -600 Descending Indianapolis Center
04:16PM 39.5961 -83.4106 63° Northeast 364 419 11,000  Level Indianapolis Center
04:17PM 39.6389 -83.3414 51° Northeast 322 371 11,000 -240 Level Indianapolis Center
04:17PM 39.6428 -83.3164 79° East 333 383 10,800 -1,020 Descending Indianapolis Center
04:18PM 39.6450 -83.2364 88° East 283 326 10,000 -1,500 Descending Indianapolis Center
04:18PM 39.6461 -83.1942 88° East 288 331 9,300 -1,920 Descending Indianapolis Center
04:19PM 39.6833 -83.1664 30° Northeast 247 284 8,100 -1,860 Descending Indianapolis Center
04:19PM 39.7067 -83.1564 18° North 258 297 7,400 -1,740 Descending Indianapolis Center
04:20PM 39.7703 -83.1372 13° North 244 281 5,900 -1,560 Descending Indianapolis Center
04:20PM 39.7725 -83.1358 26° Northeast 250 288 5,800 -1,560 Descending Indianapolis Center
04:21PM 39.8158 -83.1228 13° North 238 274 4,800 -1,260 Descending Indianapolis Center
04:21PM 39.8367 -83.1169 12° North 245 282 4,500 -660 Descending Indianapolis Center
04:22PM 39.8981 -83.0978 13° North 227 261 4,000 -540 Descending Indianapolis Center
04:22PM 39.8983 -83.0975 37° Northeast 237 273 4,000 -180 Level Indianapolis Center
04:23PM 39.9414 -83.0831 14° North 214 246 3,900 -600 Descending Indianapolis Center
04:23PM 39.9672 -83.0728 17° North 224 258 3,400 -1,020 Descending Indianapolis Center
04:24PM 39.9942 -83.0589 22° Northeast 207 238 3,000 -720 Descending Indianapolis Center
04:24PM 40.0094 -83.0311 54° Northeast 211 243 2,700 -660 Descending Indianapolis Center
04:25PM 40.0075 -82.9872 93° East 146 168 2,200 -720 Descending Indianapolis Center
04:25PM 40.0075 -82.9761 90° East 173 199 2,000 -840 Descending Indianapolis Center
04:26PM 40.0033 -82.9403 99° East 125 144 1,400 -780 Descending Indianapolis Center
04:26PM 40.0042 -82.9283 85° East 148 170 1,200 -900 Descending Indianapolis Center
04:28PM 39.9969 -82.8922 90° East  Level Estimated
04:35PM 39.9969 -82.8922 270° West  Level Estimated